createdAt,value
2018-04-19T00:01:58.960Z,174.60
2018-04-19T00:04:03.166Z,158.67
2018-04-19T00:06:07.740Z,157.90
2018-04-19T00:08:12.452Z,144.80
2018-04-19T00:10:18.420Z,136.67
2018-04-19T00:12:23.969Z,128.30
2018-04-19T00:14:27.801Z,106.80
2018-04-19T00:16:32.081Z,109.23
2018-04-19T00:18:36.247Z,96.93
2018-04-19T00:20:40.474Z,94.17
2018-04-19T00:22:44.448Z,88.07
2018-04-19T00:24:48.784Z,84.40
2018-04-19T00:26:53.076Z,78.03
2018-04-19T00:28:57.013Z,73.40
2018-04-19T00:31:01.271Z,72.27
2018-04-19T00:33:06.099Z,62.10
2018-04-19T00:35:11.225Z,57.70
2018-04-19T00:37:15.893Z,54.20
2018-04-19T00:39:22.087Z,54.57
2018-04-19T00:41:26.354Z,44.10
2018-04-19T00:43:30.552Z,49.20
2018-04-19T00:45:35.059Z,46.93
2018-04-19T00:47:39.221Z,45.27
2018-04-19T00:49:43.693Z,42.87
2018-04-19T00:51:48.270Z,44.90
2018-04-19T00:53:52.280Z,40.27
2018-04-19T00:55:56.336Z,40.60
2018-04-19T00:58:00.486Z,35.83
2018-04-19T01:00:05.134Z,30.40
2018-04-19T01:02:10.561Z,31.67
2018-04-19T01:04:15.493Z,32.53
2018-04-19T01:06:23.518Z,32.03
2018-04-19T01:08:29.589Z,30.00
2018-04-19T01:10:34.009Z,28.83
2018-04-19T01:12:38.221Z,28.40
2018-04-19T01:14:42.485Z,24.87
2018-04-19T01:16:46.774Z,24.60
2018-04-19T01:18:51.443Z,25.23
2018-04-19T01:20:55.712Z,24.60
2018-04-19T01:22:59.986Z,23.73
2018-04-19T01:25:04.733Z,22.90
2018-04-19T01:27:09.476Z,22.57
2018-04-19T01:29:13.921Z,20.77
2018-04-19T01:31:19.427Z,22.43
2018-04-19T01:33:25.441Z,18.83
2018-04-19T01:35:38.089Z,22.00
2018-04-19T01:37:42.539Z,21.50
2018-04-19T01:39:46.732Z,18.63
2018-04-19T01:41:50.987Z,17.20
2018-04-19T01:43:55.470Z,19.43
2018-04-19T01:45:59.627Z,18.60
2018-04-19T01:48:03.664Z,18.90
2018-04-19T01:50:09.224Z,21.17
2018-04-19T01:52:14.180Z,18.33
2018-04-19T01:54:19.913Z,19.67
2018-04-19T01:56:24.672Z,16.67
2018-04-19T01:58:28.739Z,17.03
2018-04-19T02:00:33.109Z,17.63
2018-04-19T02:02:37.304Z,18.80
2018-04-19T02:04:41.682Z,17.27
2018-04-19T02:06:45.914Z,17.60
2018-04-19T02:08:49.670Z,16.27
2018-04-19T02:10:54.177Z,16.13
2018-04-19T02:12:58.540Z,19.60
2018-04-19T02:15:02.556Z,17.13
2018-04-19T02:17:07.316Z,16.17
2018-04-19T02:19:12.631Z,15.97
2018-04-19T02:21:20.736Z,16.90
2018-04-19T02:23:25.188Z,14.80
2018-04-19T02:25:29.812Z,15.40
2018-04-19T02:27:34.223Z,14.90
2018-04-19T02:29:38.313Z,15.97
2018-04-19T02:31:42.543Z,15.50
2018-04-19T02:33:47.063Z,14.57
2018-04-19T02:35:51.135Z,17.40
2018-04-19T02:37:55.340Z,15.20
2018-04-19T02:40:00.071Z,15.47
2018-04-19T02:42:04.541Z,13.43
2018-04-19T02:44:09.016Z,15.60
2018-04-19T02:46:17.850Z,14.67
2018-04-19T02:48:24.028Z,17.13
2018-04-19T02:50:29.014Z,14.20
2018-04-19T02:52:33.042Z,15.57
2018-04-19T02:54:36.921Z,15.57
2018-04-19T02:56:41.214Z,14.50
2018-04-19T02:58:45.425Z,13.97
2018-04-19T03:00:49.445Z,14.70
2018-04-19T03:02:53.409Z,16.30
2018-04-19T03:04:57.987Z,15.17
2018-04-19T03:07:02.195Z,13.40
2018-04-19T03:09:08.104Z,13.33
2018-04-19T03:11:12.950Z,12.43
2018-04-19T03:13:19.155Z,17.07
2018-04-19T03:15:24.847Z,19.33
2018-04-19T03:17:29.071Z,13.60
2018-04-19T03:19:33.041Z,14.70
2018-04-19T03:21:36.953Z,14.43
2018-04-19T03:23:40.837Z,14.70
2018-04-19T03:25:45.003Z,13.80
2018-04-19T03:27:49.424Z,14.63
2018-04-19T03:29:53.872Z,13.27
2018-04-19T03:31:58.021Z,12.07
2018-04-19T03:34:01.886Z,14.40
2018-04-19T03:36:06.562Z,13.47
2018-04-19T03:38:11.383Z,16.20
2018-04-19T03:40:16.322Z,13.20
2018-04-19T03:42:21.930Z,13.10
2018-04-19T03:44:27.228Z,13.47
2018-04-19T03:46:31.174Z,14.57
2018-04-19T03:48:35.150Z,13.37
2018-04-19T03:50:39.506Z,13.20
2018-04-19T03:52:43.732Z,14.43
2018-04-19T03:54:47.693Z,14.60
2018-04-19T03:56:51.858Z,14.23
2018-04-19T03:58:55.714Z,15.13
2018-04-19T04:00:59.648Z,13.43
2018-04-19T04:03:03.845Z,15.10
2018-04-19T04:05:08.526Z,12.67
2018-04-19T04:07:13.122Z,12.73
2018-04-19T04:09:19.834Z,17.17
2018-04-19T04:11:24.424Z,16.30
2018-04-19T04:13:28.292Z,13.43
2018-04-19T04:15:32.498Z,13.57
2018-04-19T04:17:47.298Z,13.17
2018-04-19T04:20:05.463Z,12.07
2018-04-19T04:23:23.519Z,12.27
2018-04-19T04:25:27.416Z,18.83
2018-04-19T04:27:31.577Z,13.43
2018-04-19T04:29:35.485Z,13.30
2018-04-19T04:31:39.602Z,13.60
2018-04-19T04:33:43.791Z,13.00
2018-04-19T04:35:47.827Z,13.83
2018-04-19T04:37:51.858Z,14.30
2018-04-19T04:39:56.286Z,14.13
2018-04-19T04:42:00.174Z,12.10
2018-04-19T04:44:04.190Z,13.77
2018-04-19T04:46:12.440Z,11.70
2018-04-19T04:48:17.082Z,13.13
2018-04-19T04:50:23.620Z,12.53
2018-04-19T04:52:28.100Z,12.47
2018-04-19T04:54:32.204Z,16.20
2018-04-19T04:56:36.521Z,13.70
2018-04-19T04:58:40.669Z,13.10
2018-04-19T05:00:44.705Z,13.37
2018-04-19T05:02:48.910Z,16.20
2018-04-19T05:04:54.512Z,16.63
2018-04-19T05:06:58.545Z,18.37
2018-04-19T05:09:02.474Z,19.83
2018-04-19T05:11:08.270Z,13.07
2018-04-19T05:13:12.728Z,16.47
2018-04-19T05:15:17.507Z,13.60
2018-04-19T05:17:23.406Z,16.77
2018-04-19T05:19:27.302Z,14.33
2018-04-19T05:21:31.183Z,14.60
2018-04-19T05:23:35.716Z,15.23
2018-04-19T05:25:40.239Z,15.37
2018-04-19T05:27:44.112Z,15.23
2018-04-19T05:29:48.432Z,14.87
2018-04-19T05:31:52.254Z,14.10
2018-04-19T05:33:56.098Z,19.23
2018-04-19T05:36:00.416Z,16.20
2018-04-19T05:38:04.736Z,15.10
2018-04-19T05:40:17.009Z,14.77
2018-04-19T05:42:23.190Z,14.63
2018-04-19T05:44:27.056Z,15.83
2018-04-19T05:46:31.280Z,15.00
2018-04-19T05:48:39.576Z,17.33
2018-04-19T05:50:43.543Z,15.67
2018-04-19T05:52:47.365Z,15.20
2018-04-19T05:54:51.947Z,17.10
2018-04-19T05:56:55.968Z,15.57
2018-04-19T05:59:00.483Z,15.97
2018-04-19T06:01:05.150Z,15.67
2018-04-19T06:03:10.436Z,20.00
2018-04-19T06:05:17.982Z,16.67
2018-04-19T06:07:25.134Z,224.33
2018-04-19T06:09:29.169Z,247.73
2018-04-19T06:11:34.461Z,397.40
2018-04-19T06:13:39.474Z,354.50
2018-04-19T06:15:44.384Z,191.80
2018-04-19T06:17:49.329Z,103.37
2018-04-19T06:19:53.912Z,101.60
2018-04-19T06:21:58.128Z,65.50
2018-04-19T06:24:02.008Z,54.73
2018-04-19T06:26:06.977Z,45.63
2018-04-19T06:28:12.296Z,45.43
2018-04-19T06:30:16.856Z,659.47
2018-04-19T06:32:21.835Z,271.40
2018-04-19T06:34:27.232Z,217.10
2018-04-19T06:36:31.566Z,230.97
2018-04-19T06:38:35.764Z,275.00
2018-04-19T06:40:39.943Z,281.77
2018-04-19T06:42:43.827Z,322.00
2018-04-19T06:44:48.114Z,321.23
2018-04-19T06:46:52.764Z,228.87
2018-04-19T06:48:57.058Z,189.33
2018-04-19T06:51:00.995Z,118.00
2018-04-19T06:53:06.244Z,95.80
2018-04-19T06:55:11.769Z,72.90
2018-04-19T06:57:18.933Z,58.00
2018-04-19T06:59:24.353Z,63.17
2018-04-19T07:01:29.064Z,58.73
2018-04-19T07:03:33.281Z,54.40
2018-04-19T07:05:37.152Z,238.03
2018-04-19T07:07:41.385Z,188.73
2018-04-19T07:09:45.506Z,242.47
2018-04-19T07:11:50.668Z,324.70
2018-04-19T07:13:55.045Z,178.70
2018-04-19T07:15:58.988Z,189.73
2018-04-19T07:18:02.904Z,135.33
2018-04-19T07:20:08.808Z,750.60
2018-04-19T07:22:14.841Z,282.63
2018-04-19T07:24:20.825Z,289.70
2018-04-19T07:26:25.865Z,1282.40
2018-04-19T07:28:30.133Z,444.43
2018-04-19T07:30:34.113Z,301.07
2018-04-19T07:32:38.493Z,304.60
2018-04-19T07:34:42.601Z,167.27
2018-04-19T07:36:47.399Z,324.63
2018-04-19T07:38:52.419Z,541.70
2018-04-19T07:40:56.840Z,566.37
2018-04-19T07:43:01.989Z,403.93
2018-04-19T07:45:08.771Z,279.07
2018-04-19T07:47:13.408Z,608.80
2018-04-19T07:49:20.935Z,472.63
2018-04-19T07:51:26.678Z,482.07
2018-04-19T07:53:30.609Z,813.00
2018-04-19T07:55:34.971Z,571.40
2018-04-19T07:57:39.279Z,620.63
2018-04-19T07:59:43.914Z,441.67
2018-04-19T08:01:48.405Z,765.17
2018-04-19T08:03:52.950Z,418.43
2018-04-19T08:05:57.528Z,483.13
2018-04-19T08:08:01.507Z,396.70
2018-04-19T08:10:06.486Z,572.10
2018-04-19T08:12:11.951Z,554.13
2018-04-19T08:14:17.489Z,242.30
2018-04-19T08:16:25.218Z,577.47
2018-04-19T08:18:29.478Z,505.00
2018-04-19T08:20:33.807Z,351.13
2018-04-19T08:22:38.270Z,270.60
2018-04-19T08:24:42.284Z,300.90
2018-04-19T08:26:47.102Z,149.57
2018-04-19T08:28:53.038Z,186.90
2018-04-19T08:30:59.846Z,168.03
2018-04-19T08:33:05.372Z,683.40
2018-04-19T08:35:10.386Z,403.63
2018-04-19T08:37:18.333Z,352.97
2018-04-19T08:39:24.436Z,565.13
2018-04-19T08:41:30.205Z,517.07
2018-04-19T08:43:35.199Z,624.73
2018-04-19T08:45:39.206Z,743.83
2018-04-19T08:47:43.595Z,521.87
2018-04-19T08:49:48.076Z,1009.13
2018-04-19T08:51:52.318Z,794.77
2018-04-19T08:53:56.897Z,945.67
2018-04-19T08:56:01.458Z,515.23
2018-04-19T08:58:05.983Z,437.53
2018-04-19T09:00:12.616Z,432.63
2018-04-19T09:02:22.018Z,319.87
2018-04-19T09:04:31.284Z,253.87
2018-04-19T09:06:35.975Z,177.93
2018-04-19T09:08:40.346Z,125.37
2018-04-19T09:10:44.229Z,140.63
2018-04-19T09:12:48.533Z,149.70
2018-04-19T09:14:52.452Z,107.53
2018-04-19T09:16:57.980Z,78.03
2018-04-19T09:19:03.696Z,84.87
2018-04-19T09:21:10.755Z,79.73
2018-04-19T09:23:19.109Z,295.67
2018-04-19T09:25:24.331Z,617.83
2018-04-19T09:27:28.293Z,374.47
2018-04-19T09:29:32.406Z,205.97
2018-04-19T09:31:36.985Z,135.00
2018-04-19T09:33:41.009Z,144.13
2018-04-19T09:35:45.162Z,206.97
2018-04-19T09:37:49.628Z,357.17
2018-04-19T09:39:53.529Z,808.47
2018-04-19T09:41:57.465Z,900.77
2018-04-19T09:44:01.737Z,841.73
2018-04-19T09:46:07.350Z,794.13
2018-04-19T09:48:13.567Z,1008.10
2018-04-19T09:50:21.935Z,1657.37
2018-04-19T09:52:26.043Z,1114.50
2018-04-19T09:54:30.554Z,963.03
2018-04-19T09:56:35.942Z,853.47
2018-04-19T09:58:40.163Z,535.53
2018-04-19T10:00:45.838Z,578.97
2018-04-19T10:02:50.669Z,609.50
2018-04-19T10:05:00.173Z,505.23
2018-04-19T10:07:04.118Z,1706.47
2018-04-19T10:09:08.468Z,682.30
2018-04-19T10:11:13.364Z,377.90
2018-04-19T10:13:18.090Z,987.10
2018-04-19T10:15:23.993Z,555.53
2018-04-19T10:17:28.088Z,193.50
2018-04-19T10:19:32.059Z,79.67
2018-04-19T10:21:36.337Z,64.10
2018-04-19T10:23:41.053Z,49.90
2018-04-19T10:27:54.652Z,265.50
2018-04-19T10:29:58.569Z,473.27
2018-04-19T10:32:02.582Z,437.60
2018-04-19T10:34:07.706Z,209.27
2018-04-19T10:36:14.237Z,145.13
2018-04-19T10:38:19.837Z,124.27
2018-04-19T10:40:24.552Z,111.70
2018-04-19T10:42:28.658Z,88.27
2018-04-19T10:44:32.874Z,82.40
2018-04-19T10:46:37.744Z,79.63
2018-04-19T10:48:41.814Z,103.20
2018-04-19T10:50:45.752Z,454.13
2018-04-19T10:52:49.975Z,1038.37
2018-04-19T10:54:53.904Z,584.17
2018-04-19T10:56:57.834Z,310.27
2018-04-19T10:59:02.189Z,205.00
2018-04-19T11:01:07.333Z,421.27
2018-04-19T11:03:13.150Z,1999.90
2018-04-19T11:05:18.926Z,379.03
2018-04-19T11:07:23.980Z,1964.97
2018-04-19T11:09:28.307Z,1999.90
2018-04-19T11:11:32.765Z,118.50
2018-04-19T11:13:36.878Z,99.20
2018-04-19T11:15:40.789Z,71.47
2018-04-19T11:17:45.257Z,68.90
2018-04-19T11:19:49.532Z,63.87
2018-04-19T11:21:53.487Z,58.13
2018-04-19T11:23:58.016Z,53.73
2018-04-19T11:26:01.984Z,55.03
2018-04-19T11:28:07.801Z,49.57
2018-04-19T11:30:14.209Z,54.70
2018-04-19T11:32:22.510Z,50.13
2018-04-19T11:34:27.450Z,53.43
2018-04-19T11:36:34.054Z,1999.90
2018-04-19T11:38:38.581Z,1060.87
2018-04-19T11:40:42.938Z,1999.90
2018-04-19T11:42:47.616Z,1753.40
2018-04-19T11:44:51.664Z,1364.40
2018-04-19T11:46:55.633Z,578.23
2018-04-19T11:48:59.945Z,515.13
2018-04-19T11:51:06.073Z,216.00
2018-04-19T11:53:11.960Z,83.03
2018-04-19T11:55:17.335Z,50.40
2018-04-19T11:57:23.160Z,66.07
2018-04-19T11:59:27.505Z,41.27
2018-04-19T12:01:32.667Z,40.10
2018-04-19T12:03:36.842Z,32.83
2018-04-19T12:05:40.750Z,30.67
2018-04-19T12:07:45.145Z,29.80
2018-04-19T12:09:50.418Z,37.00
2018-04-19T12:11:54.400Z,129.67
2018-04-19T12:13:58.679Z,312.53
2018-04-19T12:16:02.745Z,228.63
2018-04-19T12:18:08.511Z,211.43
2018-04-19T12:20:13.470Z,146.80
2018-04-19T12:22:18.483Z,170.77
2018-04-19T12:24:23.150Z,141.57
2018-04-19T12:26:27.867Z,120.17
2018-04-19T12:28:33.866Z,116.00
2018-04-19T12:30:39.281Z,134.80
2018-04-19T12:32:43.993Z,124.40
2018-04-19T12:34:50.196Z,290.90
2018-04-19T12:36:54.905Z,130.73
2018-04-19T12:38:59.694Z,236.53
2018-04-19T12:41:03.833Z,222.63
2018-04-19T12:43:09.271Z,230.00
2018-04-19T12:45:15.437Z,247.90
2018-04-19T12:47:21.639Z,218.33
2018-04-19T12:49:26.772Z,232.90
2018-04-19T12:51:32.275Z,248.23
2018-04-19T12:53:36.649Z,222.93
2018-04-19T12:55:40.924Z,164.93
2018-04-19T12:57:45.272Z,171.90
2018-04-19T12:59:49.563Z,141.53
2018-04-19T13:01:53.816Z,128.70
2018-04-19T13:03:58.181Z,103.83
2018-04-19T13:06:02.657Z,112.87
2018-04-19T13:08:07.973Z,97.67
2018-04-19T13:10:13.047Z,73.83
2018-04-19T13:12:19.344Z,78.27
2018-04-19T13:14:25.192Z,99.93
2018-04-19T13:16:29.474Z,95.37
2018-04-19T13:18:35.430Z,87.10
2018-04-19T13:20:39.596Z,570.17
2018-04-19T13:22:43.781Z,141.30
2018-04-19T13:24:47.900Z,137.33
2018-04-19T13:26:51.902Z,120.57
2018-04-19T13:28:56.593Z,120.43
2018-04-19T13:31:00.758Z,105.07
2018-04-19T13:33:04.938Z,94.40
2018-04-19T13:35:10.478Z,96.47
2018-04-19T13:37:14.931Z,78.30
2018-04-19T13:39:20.981Z,70.73
2018-04-19T13:41:25.785Z,70.00
2018-04-19T13:43:29.766Z,66.80
2018-04-19T13:45:35.544Z,62.23
2018-04-19T13:47:39.933Z,58.40
2018-04-19T13:49:44.473Z,48.87
2018-04-19T13:51:48.448Z,199.13
2018-04-19T13:53:52.986Z,122.40
2018-04-19T13:55:57.232Z,303.43
2018-04-19T13:58:01.099Z,279.97
2018-04-19T14:00:05.360Z,243.57
2018-04-19T14:02:12.315Z,237.53
2018-04-19T14:04:18.274Z,214.30
2018-04-19T14:06:23.521Z,192.27
2018-04-19T14:08:27.568Z,189.43
2018-04-19T14:10:33.027Z,169.53
2018-04-19T14:12:37.380Z,162.17
2018-04-19T14:14:41.294Z,155.57
2018-04-19T14:16:45.254Z,134.63
2018-04-19T14:18:49.419Z,131.33
2018-04-19T14:20:53.442Z,121.57
2018-04-19T14:22:57.298Z,112.27
2018-04-19T14:25:01.506Z,113.93
2018-04-19T14:27:06.094Z,106.37
2018-04-19T14:29:11.265Z,99.57
2018-04-19T14:31:16.400Z,94.03
2018-04-19T14:33:21.941Z,89.47
2018-04-19T14:35:26.044Z,93.63
2018-04-19T14:37:30.208Z,79.07
2018-04-19T14:39:35.169Z,78.97
2018-04-19T14:41:39.196Z,70.07
2018-04-19T14:43:47.841Z,67.40
2018-04-19T14:45:51.874Z,66.70
2018-04-19T14:47:55.809Z,63.07
2018-04-19T14:49:59.982Z,61.17
2018-04-19T14:52:04.321Z,56.33
2018-04-19T14:54:08.249Z,54.47
2018-04-19T14:56:14.100Z,54.67
2018-04-19T14:58:21.027Z,51.33
2018-04-19T15:00:25.671Z,50.60
2018-04-19T15:02:30.093Z,47.70
2018-04-19T15:04:35.533Z,41.23
2018-04-19T15:06:39.376Z,41.37
2018-04-19T15:08:45.266Z,39.03
2018-04-19T15:10:49.197Z,43.93
2018-04-19T15:12:53.121Z,39.13
2018-04-19T15:14:57.361Z,37.83
2018-04-19T15:17:01.272Z,36.33
2018-04-19T15:19:08.769Z,35.73
2018-04-19T15:21:13.708Z,32.57
2018-04-19T15:23:18.947Z,30.00
2018-04-19T15:25:23.987Z,28.70
2018-04-19T15:27:28.898Z,28.13
2018-04-19T15:29:37.399Z,28.00
2018-04-19T15:31:41.645Z,27.60
2018-04-19T15:33:46.513Z,25.77
2018-04-19T15:35:50.474Z,24.87
2018-04-19T15:37:54.436Z,25.80
2018-04-19T15:39:58.815Z,24.10
2018-04-19T15:42:02.864Z,21.87
2018-04-19T15:44:09.226Z,21.40
2018-04-19T15:46:19.104Z,24.10
2018-04-19T15:48:23.609Z,23.23
2018-04-19T15:50:27.551Z,20.70
2018-04-19T15:52:34.090Z,19.30
2018-04-19T15:54:37.973Z,20.30
2018-04-19T15:56:41.856Z,20.73
2018-04-19T15:58:46.171Z,19.50
2018-04-19T16:00:50.053Z,19.73
2018-04-19T16:02:54.029Z,19.83
2018-04-19T16:04:58.308Z,19.27
2018-04-19T16:07:02.656Z,20.53
2018-04-19T16:09:09.714Z,17.30
2018-04-19T16:11:15.632Z,17.57
2018-04-19T16:13:20.742Z,16.83
2018-04-19T16:15:25.149Z,18.47
2018-04-19T16:17:29.649Z,19.57
2018-04-19T16:19:35.645Z,19.37
2018-04-19T16:21:39.517Z,16.33
2018-04-19T16:23:43.912Z,18.37
2018-04-19T16:25:47.849Z,15.77
2018-04-19T16:27:52.096Z,16.40
2018-04-19T16:29:56.377Z,19.87
2018-04-19T16:32:00.365Z,15.10
2018-04-19T16:34:23.353Z,15.97
2018-04-19T16:36:28.404Z,15.30
2018-04-19T16:38:33.982Z,15.10
2018-04-19T16:40:37.797Z,15.53
2018-04-19T16:42:42.066Z,14.60
2018-04-19T16:44:46.064Z,14.93
2018-04-19T16:46:49.929Z,14.53
2018-04-19T16:48:54.080Z,16.30
2018-04-19T16:50:57.941Z,14.03
2018-04-19T16:53:02.232Z,17.60
2018-04-19T16:55:06.872Z,14.37
2018-04-19T16:57:11.663Z,14.00
2018-04-19T16:59:17.341Z,13.43
2018-04-19T17:01:22.582Z,13.60
2018-04-19T17:03:26.444Z,13.07
2018-04-19T17:05:30.377Z,16.20
2018-04-19T17:07:38.063Z,16.10
2018-04-19T17:09:41.989Z,15.27
2018-04-19T17:11:45.858Z,14.97
2018-04-19T17:13:49.972Z,13.17
2018-04-19T17:15:54.002Z,14.23
2018-04-19T17:17:57.954Z,14.03
2018-04-19T17:20:02.484Z,16.57
2018-04-19T17:22:07.236Z,13.47
2018-04-19T17:24:12.046Z,13.43
2018-04-19T17:26:18.050Z,14.53
2018-04-19T17:28:23.976Z,13.73
2018-04-19T17:30:27.867Z,13.53
2018-04-19T17:32:33.962Z,16.90
2018-04-19T17:34:38.022Z,12.90
2018-04-19T17:36:42.330Z,15.10
2018-04-19T17:38:47.966Z,17.23
2018-04-19T17:40:51.977Z,17.50
2018-04-19T17:42:56.101Z,14.63
2018-04-19T17:45:00.406Z,17.37
2018-04-19T17:47:04.732Z,17.77
2018-04-19T17:49:09.431Z,18.40
2018-04-19T17:51:16.772Z,16.90
2018-04-19T17:53:22.528Z,18.53
2018-04-19T17:55:34.297Z,21.33
2018-04-19T17:57:38.921Z,20.87
2018-04-19T17:59:42.809Z,19.17
2018-04-19T18:01:46.644Z,18.30
2018-04-19T18:03:50.814Z,17.77
2018-04-19T18:05:54.696Z,19.80
2018-04-19T18:07:58.540Z,20.80
2018-04-19T18:10:02.750Z,19.73
2018-04-19T18:12:07.905Z,23.03
2018-04-19T18:14:13.527Z,23.50
2018-04-19T18:16:19.413Z,22.00
2018-04-19T18:18:24.590Z,22.37
2018-04-19T18:20:28.511Z,21.33
2018-04-19T18:22:33.764Z,21.07
2018-04-19T18:24:37.805Z,20.10
2018-04-19T18:26:41.718Z,24.13
2018-04-19T18:28:46.919Z,21.90
2018-04-19T18:30:50.752Z,22.10
2018-04-19T18:32:54.600Z,24.93
2018-04-19T18:34:58.888Z,24.87
2018-04-19T18:37:04.248Z,21.80
2018-04-19T18:39:09.135Z,29.60
2018-04-19T18:41:14.322Z,23.90
2018-04-19T18:43:21.173Z,21.47
2018-04-19T18:45:25.321Z,21.80
2018-04-19T18:47:30.204Z,21.17
2018-04-19T18:49:35.692Z,21.40
2018-04-19T18:51:39.756Z,26.73
2018-04-19T18:53:43.945Z,20.37
2018-04-19T18:55:47.814Z,21.10
2018-04-19T18:57:51.686Z,19.00
2018-04-19T18:59:55.996Z,21.47
2018-04-19T19:02:00.059Z,18.10
2018-04-19T19:04:04.794Z,21.57
2018-04-19T19:06:10.388Z,19.53
2018-04-19T19:08:15.653Z,32.60
2018-04-19T19:10:21.410Z,18.57
2018-04-19T19:12:26.096Z,24.80
2018-04-19T19:14:34.788Z,17.80
2018-04-19T19:16:38.819Z,18.73
2018-04-19T19:18:53.969Z,20.03
2018-04-19T19:20:57.949Z,18.57
2018-04-19T19:23:02.274Z,21.70
2018-04-19T19:25:09.557Z,21.03
2018-04-19T19:27:15.403Z,19.63
2018-04-19T19:29:20.693Z,23.90
2018-04-19T19:31:25.043Z,21.13
2018-04-19T19:33:29.022Z,20.57
2018-04-19T19:35:37.438Z,18.27
2018-04-19T19:37:41.669Z,22.40
2018-04-19T19:39:45.541Z,19.23
2018-04-19T19:41:49.488Z,19.13
2018-04-19T19:43:53.638Z,20.40
2018-04-19T19:45:57.535Z,21.57
2018-04-19T19:48:01.545Z,19.93
2018-04-19T19:50:07.717Z,27.17
2018-04-19T19:52:12.656Z,19.10
2018-04-19T19:54:17.560Z,19.40
2018-04-19T19:56:24.214Z,21.43
2018-04-19T19:58:28.576Z,18.53
2018-04-19T20:00:32.559Z,21.60
2018-04-19T20:02:36.712Z,24.77
2018-04-19T20:04:40.638Z,38.80
2018-04-19T20:06:44.670Z,24.67
2018-04-19T20:08:48.929Z,23.23
2018-04-19T20:10:53.137Z,22.40
2018-04-19T20:12:57.029Z,21.97
2018-04-19T20:15:01.896Z,23.87
2018-04-19T20:17:07.904Z,20.87
2018-04-19T20:19:12.533Z,22.77
2018-04-19T20:21:17.836Z,20.63
2018-04-19T20:23:22.795Z,25.83
2018-04-19T20:25:27.159Z,21.73
2018-04-19T20:27:35.201Z,21.20
2018-04-19T20:29:39.401Z,23.17
2018-04-19T20:31:43.451Z,25.60
2018-04-19T20:33:47.817Z,28.83
2018-04-19T20:35:51.868Z,28.80
2018-04-19T20:37:55.893Z,31.63
2018-04-19T20:40:00.452Z,101.20
2018-04-19T20:42:05.747Z,421.20
2018-04-19T20:44:10.409Z,494.80
2018-04-19T20:46:15.834Z,298.90
2018-04-19T20:48:20.569Z,234.47
2018-04-19T20:50:25.803Z,185.80
2018-04-19T20:52:29.969Z,144.07
2018-04-19T20:54:36.441Z,134.93
2018-04-19T20:56:40.589Z,98.83
2018-04-19T20:58:44.995Z,92.93
2018-04-19T21:00:48.856Z,87.77
2018-04-19T21:02:52.868Z,108.77
2018-04-19T21:04:58.131Z,459.03
2018-04-19T21:07:02.197Z,567.20
2018-04-19T21:09:07.845Z,501.90
2018-04-19T21:11:12.797Z,376.17
2018-04-19T21:13:17.595Z,331.80
2018-04-19T21:15:23.934Z,488.30
2018-04-19T21:17:28.127Z,296.03
2018-04-19T21:19:33.677Z,187.87
2018-04-19T21:21:37.597Z,146.43
2018-04-19T21:23:41.869Z,175.27
2018-04-19T21:25:45.956Z,144.40
2018-04-19T21:27:49.884Z,154.23
2018-04-19T21:29:54.265Z,132.67
2018-04-19T21:31:58.345Z,130.30
2018-04-19T21:34:02.551Z,465.97
2018-04-19T21:36:09.029Z,415.93
2018-04-19T21:38:13.509Z,447.90
2018-04-19T21:40:19.035Z,283.90
2018-04-19T21:42:24.955Z,198.30
2018-04-19T21:44:28.908Z,185.73
2018-04-19T21:46:36.636Z,172.40
2018-04-19T21:48:40.817Z,169.40
2018-04-19T21:50:44.660Z,172.30
2018-04-19T21:52:48.512Z,157.50
2018-04-19T21:54:52.865Z,135.53
2018-04-19T21:56:56.921Z,129.80
2018-04-19T21:59:00.836Z,117.87
2018-04-19T22:01:08.439Z,105.33
2018-04-19T22:03:13.696Z,119.00
2018-04-19T22:05:19.934Z,103.57
2018-04-19T22:07:25.352Z,107.60
2018-04-19T22:09:29.543Z,96.97
2018-04-19T22:11:37.579Z,98.37
2018-04-19T22:13:42.599Z,93.90
2018-04-19T22:15:46.814Z,94.10
2018-04-19T22:17:51.839Z,90.33
2018-04-19T22:19:56.220Z,84.17
2018-04-19T22:22:00.109Z,75.80
2018-04-19T22:24:05.805Z,73.20
2018-04-19T22:26:10.727Z,68.70
2018-04-19T22:28:15.839Z,74.67
2018-04-19T22:30:21.211Z,71.80
2018-04-19T22:32:25.593Z,67.53
2018-04-19T22:34:29.510Z,69.73
2018-04-19T22:36:34.716Z,63.17
2018-04-19T22:38:39.068Z,66.53
2018-04-19T22:40:42.924Z,56.70
2018-04-19T22:42:46.977Z,55.80
2018-04-19T22:44:51.493Z,62.63
2018-04-19T22:46:55.415Z,54.57
2018-04-19T22:48:59.328Z,54.27
2018-04-19T22:51:03.893Z,59.73
2018-04-19T22:53:09.283Z,58.30
2018-04-19T22:55:15.437Z,51.57
2018-04-19T22:57:23.352Z,54.20
2018-04-19T22:59:27.500Z,50.67
2018-04-19T23:01:32.342Z,46.70
2018-04-19T23:03:37.072Z,49.73
2018-04-19T23:05:42.768Z,52.20
2018-04-19T23:07:47.535Z,48.33
2018-04-19T23:09:52.009Z,41.30
2018-04-19T23:11:55.857Z,39.63
2018-04-19T23:13:59.755Z,40.87
2018-04-19T23:16:04.478Z,38.00
2018-04-19T23:18:09.270Z,38.70
2018-04-19T23:20:14.252Z,38.07
2018-04-19T23:22:23.434Z,39.00
2018-04-19T23:24:27.681Z,40.13
2018-04-19T23:26:35.261Z,42.93
2018-04-19T23:28:39.409Z,36.50
2018-04-19T23:30:43.638Z,35.70
2018-04-19T23:32:48.010Z,39.33
2018-04-19T23:34:52.117Z,38.03
2018-04-19T23:36:56.275Z,37.23
2018-04-19T23:39:00.179Z,33.40
2018-04-19T23:41:05.187Z,39.10
2018-04-19T23:43:10.066Z,34.83
2018-04-19T23:45:15.937Z,38.43
2018-04-19T23:47:23.314Z,33.07
2018-04-19T23:49:27.675Z,33.30
2018-04-19T23:53:51.959Z,30.70
2018-04-19T23:55:56.013Z,29.83
2018-04-19T23:58:00.079Z,29.00
